sensor_id;sensor_type;location;lat;lon;timestamp;pressure;altitude;pressure_sealevel;temperature;humidity
6506;BME280;3286;49.858;8.768;2022-09-30T00:00:39;98385.53;;;9.88;58.44
6506;BME280;3286;49.858;8.768;2022-09-30T00:03:05;98384.38;;;9.74;59.21
6506;BME280;3286;49.858;8.768;2022-09-30T00:05:32;98384.34;;;9.57;60.14
6506;BME280;3286;49.858;8.768;2022-09-30T00:07:59;98374.63;;;9.58;59.51
6506;BME280;3286;49.858;8.768;2022-09-30T00:10:25;98382.69;;;9.56;59.65
6506;BME280;3286;49.858;8.768;2022-09-30T00:12:52;98386.69;;;9.61;59.94
6506;BME280;3286;49.858;8.768;2022-09-30T00:15:22;98384.66;;;9.21;60.42
6506;BME280;3286;49.858;8.768;2022-09-30T00:17:50;98386.69;;;9.77;59.24
6506;BME280;3286;49.858;8.768;2022-09-30T00:20:16;98388.56;;;9.17;60.18
6506;BME280;3286;49.858;8.768;2022-09-30T00:22:46;98387.00;;;9.82;59.05
6506;BME280;3286;49.858;8.768;2022-09-30T00:25:13;98388.81;;;9.74;59.34
6506;BME280;3286;49.858;8.768;2022-09-30T00:27:42;98380.72;;;9.92;59.33
6506;BME280;3286;49.858;8.768;2022-09-30T00:30:09;98383.72;;;9.64;59.37
6506;BME280;3286;49.858;8.768;2022-09-30T00:32:36;98386.66;;;9.52;59.54
6506;BME280;3286;49.858;8.768;2022-09-30T00:35:07;98388.34;;;9.62;59.90
6506;BME280;3286;49.858;8.768;2022-09-30T00:37:35;98393.88;;;9.25;60.45
6506;BME280;3286;49.858;8.768;2022-09-30T00:40:02;98388.13;;;9.30;60.53
6506;BME280;3286;49.858;8.768;2022-09-30T00:42:29;98389.28;;;9.52;59.35
6506;BME280;3286;49.858;8.768;2022-09-30T00:45:03;98393.75;;;9.68;59.36
6506;BME280;3286;49.858;8.768;2022-09-30T00:47:43;98390.78;;;9.71;59.71
6506;BME280;3286;49.858;8.768;2022-09-30T00:50:32;98389.63;;;9.41;60.24
6506;BME280;3286;49.858;8.768;2022-09-30T00:53:05;98394.25;;;9.47;59.87
6506;BME280;3286;49.858;8.768;2022-09-30T00:55:45;98392.59;;;9.54;59.94
6506;BME280;3286;49.858;8.768;2022-09-30T00:58:17;98400.03;;;9.59;60.38
6506;BME280;3286;49.858;8.768;2022-09-30T01:00:46;98392.72;;;10.19;58.86
6506;BME280;3286;49.858;8.768;2022-09-30T01:03:15;98393.09;;;9.66;59.72
6506;BME280;3286;49.858;8.768;2022-09-30T01:05:43;98393.28;;;9.65;60.45
6506;BME280;3286;49.858;8.768;2022-09-30T01:08:09;98395.22;;;9.46;60.68
6506;BME280;3286;49.858;8.768;2022-09-30T01:10:36;98394.09;;;9.65;60.38
6506;BME280;3286;49.858;8.768;2022-09-30T01:13:03;98391.59;;;9.55;60.31
6506;BME280;3286;49.858;8.768;2022-09-30T01:15:43;98400.34;;;9.73;60.88
6506;BME280;3286;49.858;8.768;2022-09-30T01:18:19;98393.75;;;9.60;61.73
6506;BME280;3286;49.858;8.768;2022-09-30T01:21:07;98401.84;;;9.75;60.83
6506;BME280;3286;49.858;8.768;2022-09-30T01:26:54;98400.03;;;10.00;60.41
6506;BME280;3286;49.858;8.768;2022-09-30T01:29:51;98411.25;;;9.94;60.87
6506;BME280;3286;49.858;8.768;2022-09-30T01:32:42;98403.81;;;10.06;59.89
6506;BME280;3286;49.858;8.768;2022-09-30T01:35:22;98406.91;;;10.35;58.96
6506;BME280;3286;49.858;8.768;2022-09-30T01:37:57;98412.22;;;10.10;59.26
6506;BME280;3286;49.858;8.768;2022-09-30T01:40:39;98409.72;;;10.25;59.38
6506;BME280;3286;49.858;8.768;2022-09-30T01:43:12;98407.44;;;9.89;60.31
6506;BME280;3286;49.858;8.768;2022-09-30T01:45:42;98405.78;;;9.96;60.74
6506;BME280;3286;49.858;8.768;2022-09-30T01:48:21;98413.69;;;9.54;61.00
6506;BME280;3286;49.858;8.768;2022-09-30T01:50:51;98417.66;;;9.92;59.99
6506;BME280;3286;49.858;8.768;2022-09-30T01:53:24;98418.31;;;9.85;60.68
6506;BME280;3286;49.858;8.768;2022-09-30T01:55:59;98420.47;;;10.07;59.94
6506;BME280;3286;49.858;8.768;2022-09-30T01:58:35;98423.41;;;10.28;59.47
6506;BME280;3286;49.858;8.768;2022-09-30T02:01:10;98427.91;;;10.03;59.33
6506;BME280;3286;49.858;8.768;2022-09-30T02:03:44;98429.19;;;10.15;59.51
6506;BME280;3286;49.858;8.768;2022-09-30T02:06:16;98424.09;;;10.06;60.72
6506;BME280;3286;49.858;8.768;2022-09-30T02:08:48;98423.91;;;9.99;60.38
6506;BME280;3286;49.858;8.768;2022-09-30T02:11:18;98418.47;;;10.17;59.59
6506;BME280;3286;49.858;8.768;2022-09-30T02:13:54;98417.97;;;9.97;60.98
6506;BME280;3286;49.858;8.768;2022-09-30T02:16:23;98419.81;;;10.05;59.98
6506;BME280;3286;49.858;8.768;2022-09-30T02:18:56;98425.06;;;9.55;61.83
6506;BME280;3286;49.858;8.768;2022-09-30T02:21:31;98434.66;;;9.89;60.73
6506;BME280;3286;49.858;8.768;2022-09-30T02:24:05;98439.09;;;9.72;61.67
6506;BME280;3286;49.858;8.768;2022-09-30T02:26:37;98437.94;;;10.08;59.42
6506;BME280;3286;49.858;8.768;2022-09-30T02:29:14;98434.31;;;10.25;59.79
6506;BME280;3286;49.858;8.768;2022-09-30T02:31:43;98441.88;;;9.70;60.34
6506;BME280;3286;49.858;8.768;2022-09-30T02:34:15;98438.09;;;9.90;60.54
6506;BME280;3286;49.858;8.768;2022-09-30T02:36:52;98442.06;;;9.77;60.34
6506;BME280;3286;49.858;8.768;2022-09-30T02:39:27;98439.75;;;9.82;60.04
6506;BME280;3286;49.858;8.768;2022-09-30T02:42:02;98446.69;;;9.67;60.35
6506;BME280;3286;49.858;8.768;2022-09-30T02:44:33;98442.91;;;9.94;59.83
6506;BME280;3286;49.858;8.768;2022-09-30T02:47:10;98448.34;;;9.76;59.99
6506;BME280;3286;49.858;8.768;2022-09-30T02:49:42;98445.38;;;9.79;59.74
6506;BME280;3286;49.858;8.768;2022-09-30T02:52:20;98444.53;;;9.79;59.48
6506;BME280;3286;49.858;8.768;2022-09-30T02:54:54;98442.56;;;9.89;59.90
6506;BME280;3286;49.858;8.768;2022-09-30T02:57:27;98442.88;;;9.61;60.20
6506;BME280;3286;49.858;8.768;2022-09-30T02:59:59;98442.53;;;9.64;59.88
6506;BME280;3286;49.858;8.768;2022-09-30T03:02:25;98453.41;;;9.53;60.32
6506;BME280;3286;49.858;8.768;2022-09-30T03:04:53;98458.63;;;9.28;60.93
6506;BME280;3286;49.858;8.768;2022-09-30T03:07:20;98471.81;;;9.36;60.61
6506;BME280;3286;49.858;8.768;2022-09-30T03:09:47;98469.81;;;9.30;59.91
6506;BME280;3286;49.858;8.768;2022-09-30T03:12:21;98463.44;;;9.49;59.82
6506;BME280;3286;49.858;8.768;2022-09-30T03:15:13;98462.78;;;8.96;61.05
6506;BME280;3286;49.858;8.768;2022-09-30T03:20:49;98459.25;;;9.13;60.31
6506;BME280;3286;49.858;8.768;2022-09-30T03:23:34;98465.06;;;8.91;60.56
6506;BME280;3286;49.858;8.768;2022-09-30T03:26:14;98464.19;;;9.17;59.86
6506;BME280;3286;49.858;8.768;2022-09-30T03:28:51;98461.03;;;9.13;59.33
6506;BME280;3286;49.858;8.768;2022-09-30T03:31:33;98462.97;;;9.03;59.68
6506;BME280;3286;49.858;8.768;2022-09-30T03:34:12;98462.06;;;9.20;58.81
6506;BME280;3286;49.858;8.768;2022-09-30T03:36:49;98461.53;;;9.08;59.67
6506;BME280;3286;49.858;8.768;2022-09-30T03:39:37;98470.31;;;8.91;60.09
6506;BME280;3286;49.858;8.768;2022-09-30T03:42:11;98471.19;;;8.65;60.39
6506;BME280;3286;49.858;8.768;2022-09-30T03:44:40;98478.53;;;8.88;59.59
6506;BME280;3286;49.858;8.768;2022-09-30T03:47:11;98481.56;;;8.66;60.61
6506;BME280;3286;49.858;8.768;2022-09-30T03:49:45;98483.75;;;8.71;60.16
6506;BME280;3286;49.858;8.768;2022-09-30T03:52:18;98479.81;;;8.75;59.69
6506;BME280;3286;49.858;8.768;2022-09-30T03:54:47;98480.56;;;8.41;61.10
6506;BME280;3286;49.858;8.768;2022-09-30T03:57:17;98489.66;;;8.47;60.51
6506;BME280;3286;49.858;8.768;2022-09-30T03:59:43;98496.53;;;8.39;60.72
6506;BME280;3286;49.858;8.768;2022-09-30T04:02:12;98494.91;;;8.47;60.34
6506;BME280;3286;49.858;8.768;2022-09-30T04:04:39;98500.19;;;8.47;60.08
6506;BME280;3286;49.858;8.768;2022-09-30T04:07:08;98493.59;;;8.24;60.49
6506;BME280;3286;49.858;8.768;2022-09-30T04:09:37;98498.00;;;8.60;58.96
6506;BME280;3286;49.858;8.768;2022-09-30T04:12:04;98489.94;;;8.17;60.64
6506;BME280;3286;49.858;8.768;2022-09-30T04:14:32;98489.88;;;8.35;59.65
6506;BME280;3286;49.858;8.768;2022-09-30T04:17:03;98499.50;;;8.45;59.60
6506;BME280;3286;49.858;8.768;2022-09-30T04:19:32;98497.47;;;8.57;59.11
6506;BME280;3286;49.858;8.768;2022-09-30T04:22:02;98497.50;;;8.38;59.57
6506;BME280;3286;49.858;8.768;2022-09-30T04:24:30;98502.25;;;7.98;60.98
6506;BME280;3286;49.858;8.768;2022-09-30T04:26:58;98502.56;;;8.14;60.27
6506;BME280;3286;49.858;8.768;2022-09-30T04:29:26;98501.44;;;7.98;59.83
6506;BME280;3286;49.858;8.768;2022-09-30T04:31:55;98502.63;;;7.86;60.89
6506;BME280;3286;49.858;8.768;2022-09-30T04:34:22;98497.47;;;7.76;60.24
6506;BME280;3286;49.858;8.768;2022-09-30T04:36:48;98518.31;;;7.59;60.53
6506;BME280;3286;49.858;8.768;2022-09-30T04:39:15;98521.03;;;7.86;59.95
6506;BME280;3286;49.858;8.768;2022-09-30T04:41:41;98517.06;;;8.00;59.54
6506;BME280;3286;49.858;8.768;2022-09-30T04:44:10;98530.47;;;7.60;60.69
6506;BME280;3286;49.858;8.768;2022-09-30T04:46:40;98528.78;;;7.69;60.12
6506;BME280;3286;49.858;8.768;2022-09-30T04:49:14;98539.25;;;7.79;60.68
6506;BME280;3286;49.858;8.768;2022-09-30T04:51:40;98534.50;;;7.82;59.67
6506;BME280;3286;49.858;8.768;2022-09-30T04:54:10;98540.09;;;7.69;60.60
6506;BME280;3286;49.858;8.768;2022-09-30T04:56:37;98541.53;;;7.64;60.75
6506;BME280;3286;49.858;8.768;2022-09-30T04:59:05;98539.13;;;7.71;61.28
6506;BME280;3286;49.858;8.768;2022-09-30T05:01:33;98542.53;;;7.35;62.77
6506;BME280;3286;49.858;8.768;2022-09-30T05:04:03;98553.16;;;7.33;62.86
6506;BME280;3286;49.858;8.768;2022-09-30T05:06:30;98559.59;;;6.63;64.36
6506;BME280;3286;49.858;8.768;2022-09-30T05:08:56;98558.31;;;7.25;62.70
6506;BME280;3286;49.858;8.768;2022-09-30T05:11:23;98556.13;;;7.48;61.33
6506;BME280;3286;49.858;8.768;2022-09-30T05:13:50;98558.59;;;7.60;61.13
6506;BME280;3286;49.858;8.768;2022-09-30T05:16:17;98552.81;;;7.46;61.27
6506;BME280;3286;49.858;8.768;2022-09-30T05:18:45;98558.03;;;7.28;61.91
6506;BME280;3286;49.858;8.768;2022-09-30T05:21:17;98555.44;;;7.74;60.32
6506;BME280;3286;49.858;8.768;2022-09-30T05:23:44;98550.53;;;7.33;61.69
6506;BME280;3286;49.858;8.768;2022-09-30T05:26:11;98551.94;;;7.37;61.46
6506;BME280;3286;49.858;8.768;2022-09-30T05:28:38;98551.50;;;7.60;60.78
6506;BME280;3286;49.858;8.768;2022-09-30T05:31:08;98557.44;;;8.26;58.98
6506;BME280;3286;49.858;8.768;2022-09-30T05:33:36;98560.50;;;7.86;60.19
6506;BME280;3286;49.858;8.768;2022-09-30T05:36:08;98564.06;;;7.66;60.21
6506;BME280;3286;49.858;8.768;2022-09-30T05:38:44;98569.06;;;7.42;60.49
6506;BME280;3286;49.858;8.768;2022-09-30T05:41:12;98579.44;;;7.33;60.49
6506;BME280;3286;49.858;8.768;2022-09-30T05:43:41;98584.88;;;6.84;62.37
6506;BME280;3286;49.858;8.768;2022-09-30T05:46:12;98584.72;;;7.61;59.74
6506;BME280;3286;49.858;8.768;2022-09-30T05:48:38;98591.94;;;7.21;60.65
6506;BME280;3286;49.858;8.768;2022-09-30T05:51:07;98599.22;;;7.37;60.88
6506;BME280;3286;49.858;8.768;2022-09-30T05:53:35;98597.03;;;7.61;59.20
6506;BME280;3286;49.858;8.768;2022-09-30T05:56:03;98615.22;;;7.44;59.93
6506;BME280;3286;49.858;8.768;2022-09-30T05:58:30;98616.97;;;7.16;60.64
6506;BME280;3286;49.858;8.768;2022-09-30T06:00:56;98621.47;;;7.33;60.36
6506;BME280;3286;49.858;8.768;2022-09-30T06:03:23;98628.75;;;7.49;59.53
6506;BME280;3286;49.858;8.768;2022-09-30T06:05:55;98631.06;;;7.62;59.17
6506;BME280;3286;49.858;8.768;2022-09-30T06:08:26;98636.19;;;7.64;59.34
6506;BME280;3286;49.858;8.768;2022-09-30T06:10:52;98638.63;;;7.37;59.91
6506;BME280;3286;49.858;8.768;2022-09-30T06:13:20;98629.78;;;7.38;59.92
6506;BME280;3286;49.858;8.768;2022-09-30T06:15:54;98638.94;;;7.24;60.55
6506;BME280;3286;49.858;8.768;2022-09-30T06:18:21;98640.50;;;7.07;61.10
6506;BME280;3286;49.858;8.768;2022-09-30T06:20:48;98641.72;;;7.13;61.25
6506;BME280;3286;49.858;8.768;2022-09-30T06:23:14;98644.34;;;7.13;60.50
6506;BME280;3286;49.858;8.768;2022-09-30T06:25:42;98637.31;;;7.04;60.94
6506;BME280;3286;49.858;8.768;2022-09-30T06:28:09;98645.09;;;7.43;60.20
6506;BME280;3286;49.858;8.768;2022-09-30T06:30:36;98640.13;;;7.40;59.52
6506;BME280;3286;49.858;8.768;2022-09-30T06:33:03;98648.38;;;7.17;61.30
6506;BME280;3286;49.858;8.768;2022-09-30T06:35:34;98659.97;;;7.15;60.85
6506;BME280;3286;49.858;8.768;2022-09-30T06:38:00;98656.00;;;7.01;60.60
6506;BME280;3286;49.858;8.768;2022-09-30T06:40:31;98660.38;;;7.30;60.38
6506;BME280;3286;49.858;8.768;2022-09-30T06:42:59;98662.09;;;7.59;59.38
6506;BME280;3286;49.858;8.768;2022-09-30T06:45:26;98674.38;;;7.96;58.22
6506;BME280;3286;49.858;8.768;2022-09-30T06:47:55;98675.72;;;7.24;60.85
6506;BME280;3286;49.858;8.768;2022-09-30T06:50:27;98676.69;;;7.23;61.07
6506;BME280;3286;49.858;8.768;2022-09-30T06:52:56;98675.00;;;7.80;59.71
6506;BME280;3286;49.858;8.768;2022-09-30T06:55:23;98678.66;;;8.15;58.66
6506;BME280;3286;49.858;8.768;2022-09-30T06:57:51;98685.78;;;7.39;60.17
6506;BME280;3286;49.858;8.768;2022-09-30T07:00:19;98690.63;;;7.81;61.05
6506;BME280;3286;49.858;8.768;2022-09-30T07:02:46;98693.78;;;8.13;59.68
6506;BME280;3286;49.858;8.768;2022-09-30T07:05:13;98694.38;;;7.79;60.58
6506;BME280;3286;49.858;8.768;2022-09-30T07:07:43;98685.97;;;8.49;58.98
6506;BME280;3286;49.858;8.768;2022-09-30T07:10:11;98689.75;;;8.37;58.70
6506;BME280;3286;49.858;8.768;2022-09-30T07:12:38;98690.69;;;8.46;58.77
6506;BME280;3286;49.858;8.768;2022-09-30T07:15:09;98697.28;;;8.32;59.52
6506;BME280;3286;49.858;8.768;2022-09-30T07:17:37;98696.06;;;8.54;58.88
6506;BME280;3286;49.858;8.768;2022-09-30T07:20:07;98693.34;;;8.64;58.88
6506;BME280;3286;49.858;8.768;2022-09-30T07:22:40;98700.03;;;8.94;58.76
6506;BME280;3286;49.858;8.768;2022-09-30T07:25:07;98706.53;;;8.82;58.54
6506;BME280;3286;49.858;8.768;2022-09-30T07:27:36;98697.34;;;9.31;58.18
6506;BME280;3286;49.858;8.768;2022-09-30T07:30:03;98709.56;;;9.13;59.22
6506;BME280;3286;49.858;8.768;2022-09-30T07:32:34;98711.59;;;9.46;57.49
6506;BME280;3286;49.858;8.768;2022-09-30T07:35:08;98712.13;;;9.23;57.32
6506;BME280;3286;49.858;8.768;2022-09-30T07:37:35;98718.41;;;9.04;58.95
6506;BME280;3286;49.858;8.768;2022-09-30T07:40:05;98715.06;;;9.47;57.23
6506;BME280;3286;49.858;8.768;2022-09-30T07:42:32;98719.50;;;9.46;57.79
6506;BME280;3286;49.858;8.768;2022-09-30T07:44:59;98714.09;;;9.48;57.40
6506;BME280;3286;49.858;8.768;2022-09-30T07:47:26;98715.13;;;9.55;57.44
6506;BME280;3286;49.858;8.768;2022-09-30T07:49:55;98720.75;;;9.34;57.40
6506;BME280;3286;49.858;8.768;2022-09-30T07:52:23;98724.63;;;9.48;57.98
6506;BME280;3286;49.858;8.768;2022-09-30T07:54:49;98719.06;;;9.51;58.41
6506;BME280;3286;49.858;8.768;2022-09-30T07:57:16;98726.47;;;9.29;59.07
6506;BME280;3286;49.858;8.768;2022-09-30T07:59:43;98722.03;;;9.30;59.84
6506;BME280;3286;49.858;8.768;2022-09-30T08:02:13;98726.41;;;9.74;57.86
6506;BME280;3286;49.858;8.768;2022-09-30T08:04:40;98724.56;;;10.00;57.63
6506;BME280;3286;49.858;8.768;2022-09-30T08:07:06;98735.91;;;10.27;57.38
6506;BME280;3286;49.858;8.768;2022-09-30T08:09:34;98733.69;;;10.49;56.64
6506;BME280;3286;49.858;8.768;2022-09-30T08:12:04;98732.75;;;10.67;56.50
6506;BME280;3286;49.858;8.768;2022-09-30T08:14:31;98733.56;;;10.67;56.33
6506;BME280;3286;49.858;8.768;2022-09-30T08:16:57;98736.09;;;11.02;55.74
6506;BME280;3286;49.858;8.768;2022-09-30T08:19:27;98738.06;;;11.25;55.48
6506;BME280;3286;49.858;8.768;2022-09-30T08:21:55;98731.78;;;11.42;54.75
6506;BME280;3286;49.858;8.768;2022-09-30T08:24:27;98741.84;;;11.14;55.67
6506;BME280;3286;49.858;8.768;2022-09-30T08:26:55;98745.16;;;10.99;56.33
6506;BME280;3286;49.858;8.768;2022-09-30T08:29:23;98736.69;;;11.62;55.15
6506;BME280;3286;49.858;8.768;2022-09-30T08:31:50;98748.59;;;11.66;55.26
6506;BME280;3286;49.858;8.768;2022-09-30T08:34:18;98740.81;;;11.73;55.40
6506;BME280;3286;49.858;8.768;2022-09-30T08:36:45;98744.53;;;12.03;54.62
6506;BME280;3286;49.858;8.768;2022-09-30T08:39:13;98751.41;;;12.21;54.44
6506;BME280;3286;49.858;8.768;2022-09-30T08:42:04;98757.00;;;12.66;54.06
6506;BME280;3286;49.858;8.768;2022-09-30T08:44:43;98755.50;;;12.64;53.56
6506;BME280;3286;49.858;8.768;2022-09-30T08:47:32;98760.38;;;12.83;53.60
6506;BME280;3286;49.858;8.768;2022-09-30T08:50:12;98756.91;;;13.06;53.00
6506;BME280;3286;49.858;8.768;2022-09-30T08:52:45;98766.25;;;13.17;52.19
6506;BME280;3286;49.858;8.768;2022-09-30T08:55:20;98755.25;;;13.67;51.61
6506;BME280;3286;49.858;8.768;2022-09-30T08:57:51;98755.31;;;13.58;51.91
6506;BME280;3286;49.858;8.768;2022-09-30T09:00:19;98754.06;;;13.69;51.92
6506;BME280;3286;49.858;8.768;2022-09-30T09:02:48;98747.53;;;14.17;50.96
6506;BME280;3286;49.858;8.768;2022-09-30T09:05:31;98741.53;;;14.08;51.26
6506;BME280;3286;49.858;8.768;2022-09-30T09:08:10;98738.44;;;14.41;50.46
6506;BME280;3286;49.858;8.768;2022-09-30T09:10:41;98745.13;;;14.37;50.75
6506;BME280;3286;49.858;8.768;2022-09-30T09:13:23;98743.03;;;14.69;50.48
6506;BME280;3286;49.858;8.768;2022-09-30T09:16:02;98745.31;;;14.87;50.12
6506;BME280;3286;49.858;8.768;2022-09-30T09:18:48;98738.06;;;15.03;49.69
6506;BME280;3286;49.858;8.768;2022-09-30T09:21:22;98748.66;;;14.96;50.66
6506;BME280;3286;49.858;8.768;2022-09-30T09:24:00;98747.50;;;14.84;50.87
6506;BME280;3286;49.858;8.768;2022-09-30T09:26:29;98745.19;;;15.46;49.35
6506;BME280;3286;49.858;8.768;2022-09-30T09:29:14;98747.94;;;15.59;49.05
6506;BME280;3286;49.858;8.768;2022-09-30T09:31:48;98740.19;;;15.64;48.47
6506;BME280;3286;49.858;8.768;2022-09-30T09:34:15;98743.91;;;15.92;48.09
6506;BME280;3286;49.858;8.768;2022-09-30T09:36:51;98732.78;;;16.30;47.46
6506;BME280;3286;49.858;8.768;2022-09-30T09:42:44;98738.06;;;16.79;46.68
6506;BME280;3286;49.858;8.768;2022-09-30T09:45:24;98737.47;;;16.97;45.51
6506;BME280;3286;49.858;8.768;2022-09-30T09:47:55;98738.75;;;17.01;45.12
6506;BME280;3286;49.858;8.768;2022-09-30T09:50:30;98739.09;;;16.91;46.27
6506;BME280;3286;49.858;8.768;2022-09-30T09:53:12;98739.56;;;17.29;45.44
6506;BME280;3286;49.858;8.768;2022-09-30T09:55:42;98737.53;;;17.17;45.35
6506;BME280;3286;49.858;8.768;2022-09-30T09:58:12;98732.38;;;17.49;44.66
6506;BME280;3286;49.858;8.768;2022-09-30T10:00:42;98741.53;;;17.94;43.38
6506;BME280;3286;49.858;8.768;2022-09-30T10:03:35;98742.94;;;18.17;43.12
6506;BME280;3286;49.858;8.768;2022-09-30T10:06:08;98741.81;;;18.38;43.13
6506;BME280;3286;49.858;8.768;2022-09-30T10:08:38;98747.31;;;18.50;42.36
6506;BME280;3286;49.858;8.768;2022-09-30T10:11:16;98744.28;;;18.78;41.85
6506;BME280;3286;49.858;8.768;2022-09-30T10:13:44;98749.94;;;19.02;40.96
6506;BME280;3286;49.858;8.768;2022-09-30T10:16:31;98745.03;;;19.24;40.87
6506;BME280;3286;49.858;8.768;2022-09-30T10:19:04;98744.72;;;19.39;40.91
6506;BME280;3286;49.858;8.768;2022-09-30T10:21:42;98738.97;;;19.36;40.94
6506;BME280;3286;49.858;8.768;2022-09-30T10:24:25;98743.19;;;19.69;39.16
6506;BME280;3286;49.858;8.768;2022-09-30T10:26:54;98739.38;;;19.58;40.20
6506;BME280;3286;49.858;8.768;2022-09-30T10:29:26;98733.59;;;19.61;39.72
6506;BME280;3286;49.858;8.768;2022-09-30T10:31:55;98733.50;;;19.93;39.39
6506;BME280;3286;49.858;8.768;2022-09-30T10:34:27;98726.78;;;20.21;38.44
6506;BME280;3286;49.858;8.768;2022-09-30T10:36:57;98729.63;;;20.08;38.23
6506;BME280;3286;49.858;8.768;2022-09-30T10:39:26;98720.97;;;20.24;36.75
6506;BME280;3286;49.858;8.768;2022-09-30T10:42:03;98718.16;;;19.57;38.19
6506;BME280;3286;49.858;8.768;2022-09-30T10:44:41;98718.97;;;19.38;38.06
6506;BME280;3286;49.858;8.768;2022-09-30T10:47:15;98718.88;;;19.01;39.01
6506;BME280;3286;49.858;8.768;2022-09-30T10:49:45;98717.41;;;19.49;38.61
6506;BME280;3286;49.858;8.768;2022-09-30T10:52:18;98717.13;;;20.20;37.49
6506;BME280;3286;49.858;8.768;2022-09-30T10:54:50;98711.38;;;20.17;36.82
6506;BME280;3286;49.858;8.768;2022-09-30T10:57:24;98710.50;;;20.04;35.70
6506;BME280;3286;49.858;8.768;2022-09-30T10:59:57;98706.44;;;20.75;35.04
6506;BME280;3286;49.858;8.768;2022-09-30T11:02:29;98703.81;;;21.65;34.98
6506;BME280;3286;49.858;8.768;2022-09-30T11:05:12;98710.13;;;20.80;35.66
6506;BME280;3286;49.858;8.768;2022-09-30T11:07:46;98714.28;;;21.19;35.02
6506;BME280;3286;49.858;8.768;2022-09-30T11:10:32;98710.09;;;20.19;35.88
6506;BME280;3286;49.858;8.768;2022-09-30T11:13:03;98711.09;;;20.06;36.76
6506;BME280;3286;49.858;8.768;2022-09-30T11:15:44;98708.00;;;19.21;38.08
6506;BME280;3286;49.858;8.768;2022-09-30T11:18:25;98710.59;;;18.96;38.85
6506;BME280;3286;49.858;8.768;2022-09-30T11:21:00;98711.00;;;19.06;38.88
6506;BME280;3286;49.858;8.768;2022-09-30T11:23:32;98712.06;;;19.24;37.01
6506;BME280;3286;49.858;8.768;2022-09-30T11:26:06;98713.69;;;19.50;36.55
6506;BME280;3286;49.858;8.768;2022-09-30T11:28:47;98710.75;;;19.33;37.52
6506;BME280;3286;49.858;8.768;2022-09-30T11:31:24;98704.34;;;19.60;37.53
6506;BME280;3286;49.858;8.768;2022-09-30T11:34:17;98708.00;;;19.21;38.15
6506;BME280;3286;49.858;8.768;2022-09-30T11:36:53;98716.66;;;19.17;38.42
6506;BME280;3286;49.858;8.768;2022-09-30T11:39:34;98707.75;;;18.98;38.52
6506;BME280;3286;49.858;8.768;2022-09-30T11:42:14;98713.09;;;18.98;37.76
6506;BME280;3286;49.858;8.768;2022-09-30T11:44:45;98715.50;;;18.74;38.55
6506;BME280;3286;49.858;8.768;2022-09-30T11:47:26;98715.59;;;18.92;39.52
6506;BME280;3286;49.858;8.768;2022-09-30T11:50:24;98710.44;;;18.91;39.31
6506;BME280;3286;49.858;8.768;2022-09-30T11:53:05;98712.66;;;19.51;38.04
6506;BME280;3286;49.858;8.768;2022-09-30T11:55:56;98711.66;;;20.27;36.52
6506;BME280;3286;49.858;8.768;2022-09-30T11:58:30;98710.72;;;20.03;36.86
6506;BME280;3286;49.858;8.768;2022-09-30T12:01:08;98714.34;;;20.58;35.24
6506;BME280;3286;49.858;8.768;2022-09-30T12:03:41;98709.13;;;20.14;37.38
6506;BME280;3286;49.858;8.768;2022-09-30T12:06:17;98700.75;;;21.13;35.12
6506;BME280;3286;49.858;8.768;2022-09-30T12:08:50;98703.84;;;20.07;36.19
6506;BME280;3286;49.858;8.768;2022-09-30T12:11:30;98710.56;;;20.77;36.72
6506;BME280;3286;49.858;8.768;2022-09-30T12:14:02;98700.41;;;21.46;34.91
6506;BME280;3286;49.858;8.768;2022-09-30T12:16:31;98707.78;;;21.74;33.58
6506;BME280;3286;49.858;8.768;2022-09-30T12:19:04;98707.75;;;21.62;34.19
6506;BME280;3286;49.858;8.768;2022-09-30T12:21:46;98719.56;;;21.61;33.90
6506;BME280;3286;49.858;8.768;2022-09-30T12:24:20;98718.72;;;21.96;33.48
6506;BME280;3286;49.858;8.768;2022-09-30T12:26:49;98715.34;;;22.30;32.55
6506;BME280;3286;49.858;8.768;2022-09-30T12:29:20;98718.63;;;21.44;33.60
6506;BME280;3286;49.858;8.768;2022-09-30T12:32:41;98712.75;;;21.94;33.09
6506;BME280;3286;49.858;8.768;2022-09-30T12:35:36;98719.97;;;22.06;32.12
6506;BME280;3286;49.858;8.768;2022-09-30T12:38:21;98722.09;;;21.20;33.93
6506;BME280;3286;49.858;8.768;2022-09-30T12:41:10;98730.41;;;21.19;33.48
6506;BME280;3286;49.858;8.768;2022-09-30T12:43:59;98718.88;;;21.66;31.95
6506;BME280;3286;49.858;8.768;2022-09-30T12:46:47;98719.06;;;21.40;32.37
6506;BME280;3286;49.858;8.768;2022-09-30T12:49:21;98718.16;;;21.82;31.54
6506;BME280;3286;49.858;8.768;2022-09-30T12:51:52;98724.84;;;22.21;31.86
6506;BME280;3286;49.858;8.768;2022-09-30T12:54:24;98723.31;;;21.72;31.68
6506;BME280;3286;49.858;8.768;2022-09-30T12:56:54;98726.34;;;21.52;32.29
6506;BME280;3286;49.858;8.768;2022-09-30T12:59:24;98723.84;;;21.98;31.60
6506;BME280;3286;49.858;8.768;2022-09-30T13:01:53;98716.28;;;22.36;30.27
6506;BME280;3286;49.858;8.768;2022-09-30T13:04:30;98719.44;;;22.62;29.71
6506;BME280;3286;49.858;8.768;2022-09-30T13:07:20;98712.19;;;23.08;30.84
6506;BME280;3286;49.858;8.768;2022-09-30T13:10:23;98725.59;;;22.57;30.55
6506;BME280;3286;49.858;8.768;2022-09-30T13:13:16;98723.16;;;22.72;32.82
6506;BME280;3286;49.858;8.768;2022-09-30T13:15:46;98731.13;;;21.50;31.95
6506;BME280;3286;49.858;8.768;2022-09-30T13:21:23;98723.34;;;22.13;30.56
6506;BME280;3286;49.858;8.768;2022-09-30T13:23:52;98722.03;;;21.63;30.65
6506;BME280;3286;49.858;8.768;2022-09-30T13:26:40;98741.41;;;19.81;34.61
6506;BME280;3286;49.858;8.768;2022-09-30T13:29:32;98728.72;;;19.95;34.69
6506;BME280;3286;49.858;8.768;2022-09-30T13:32:08;98733.56;;;21.27;33.02
6506;BME280;3286;49.858;8.768;2022-09-30T13:34:55;98731.63;;;20.92;32.74
6506;BME280;3286;49.858;8.768;2022-09-30T13:37:38;98715.47;;;21.70;31.92
6506;BME280;3286;49.858;8.768;2022-09-30T13:40:14;98727.81;;;20.39;33.34
6506;BME280;3286;49.858;8.768;2022-09-30T13:42:50;98715.25;;;21.72;31.58
6506;BME280;3286;49.858;8.768;2022-09-30T13:45:27;98718.03;;;21.89;30.40
6506;BME280;3286;49.858;8.768;2022-09-30T13:48:03;98729.50;;;20.52;32.24
6506;BME280;3286;49.858;8.768;2022-09-30T13:50:43;98722.72;;;20.80;32.43
6506;BME280;3286;49.858;8.768;2022-09-30T13:53:15;98722.88;;;20.85;32.41
6506;BME280;3286;49.858;8.768;2022-09-30T13:55:47;98713.47;;;21.90;31.14
6506;BME280;3286;49.858;8.768;2022-09-30T13:58:43;98722.59;;;21.89;31.51
6506;BME280;3286;49.858;8.768;2022-09-30T14:01:26;98716.75;;;22.33;30.07
6506;BME280;3286;49.858;8.768;2022-09-30T14:04:12;98723.78;;;22.34;30.22
6506;BME280;3286;49.858;8.768;2022-09-30T14:06:52;98720.81;;;22.47;29.83
6506;BME280;3286;49.858;8.768;2022-09-30T14:09:39;98704.66;;;22.76;29.33
6506;BME280;3286;49.858;8.768;2022-09-30T14:12:29;98706.78;;;22.33;29.90